sensor_id;sensor_type;location;lat;lon;timestamp;pressure;altitude;pressure_sealevel;temperature;humidity
31771;BME280;18343;50.152;8.182;2023-03-05T00:02:28;97754.41;;;5.16;100.00
31771;BME280;18343;50.152;8.182;2023-03-05T00:05:14;97751.59;;;5.17;100.00
31771;BME280;18343;50.152;8.182;2023-03-05T00:07:58;97744.84;;;4.95;100.00
31771;BME280;18343;50.152;8.182;2023-03-05T00:10:43;97749.88;;;4.98;100.00
31771;BME280;18343;50.152;8.182;2023-03-05T00:13:28;97752.19;;;5.11;100.00
31771;BME280;18343;50.152;8.182;2023-03-05T00:16:14;97749.91;;;5.16;100.00
31771;BME280;18343;50.152;8.182;2023-03-05T00:23:03;97743.16;;;4.94;100.00
31771;BME280;18343;50.152;8.182;2023-03-05T00:25:47;97739.31;;;5.06;100.00
31771;BME280;18343;50.152;8.182;2023-03-05T00:28:32;97742.44;;;5.02;100.00
31771;BME280;18343;50.152;8.182;2023-03-05T00:31:18;97744.19;;;5.11;100.00
31771;BME280;18343;50.152;8.182;2023-03-05T00:34:06;97740.44;;;5.04;100.00
31771;BME280;18343;50.152;8.182;2023-03-05T00:36:51;97747.88;;;4.28;100.00
31771;BME280;18343;50.152;8.182;2023-03-05T00:39:37;97742.91;;;4.70;100.00
31771;BME280;18343;50.152;8.182;2023-03-05T00:42:22;97744.50;;;4.90;100.00
31771;BME280;18343;50.152;8.182;2023-03-05T00:45:08;97736.94;;;5.03;100.00
31771;BME280;18343;50.152;8.182;2023-03-05T00:47:53;97733.38;;;5.13;100.00
31771;BME280;18343;50.152;8.182;2023-03-05T00:50:37;97729.59;;;5.15;100.00
31771;BME280;18343;50.152;8.182;2023-03-05T00:53:22;97726.00;;;5.06;100.00
31771;BME280;18343;50.152;8.182;2023-03-05T00:56:07;97722.72;;;5.13;100.00
31771;BME280;18343;50.152;8.182;2023-03-05T00:58:52;97721.06;;;5.12;100.00
31771;BME280;18343;50.152;8.182;2023-03-05T01:01:37;97715.72;;;5.12;100.00
31771;BME280;18343;50.152;8.182;2023-03-05T01:04:25;97722.44;;;5.16;100.00
31771;BME280;18343;50.152;8.182;2023-03-05T01:07:10;97711.06;;;5.14;100.00
31771;BME280;18343;50.152;8.182;2023-03-05T01:09:54;97711.06;;;5.14;100.00
31771;BME280;18343;50.152;8.182;2023-03-05T01:12:40;97711.91;;;5.14;100.00
31771;BME280;18343;50.152;8.182;2023-03-05T01:15:25;97713.59;;;5.15;100.00
31771;BME280;18343;50.152;8.182;2023-03-05T01:18:10;97704.06;;;5.13;100.00
31771;BME280;18343;50.152;8.182;2023-03-05T01:20:55;97704.38;;;5.09;100.00
31771;BME280;18343;50.152;8.182;2023-03-05T01:23:40;97697.91;;;5.12;100.00
31771;BME280;18343;50.152;8.182;2023-03-05T01:26:27;97692.41;;;5.14;100.00
31771;BME280;18343;50.152;8.182;2023-03-05T01:29:13;97692.56;;;5.12;100.00
31771;BME280;18343;50.152;8.182;2023-03-05T01:31:58;97687.00;;;5.05;100.00
31771;BME280;18343;50.152;8.182;2023-03-05T01:34:43;97690.50;;;5.06;100.00
31771;BME280;18343;50.152;8.182;2023-03-05T01:37:27;97680.97;;;5.03;100.00
31771;BME280;18343;50.152;8.182;2023-03-05T01:40:15;97679.75;;;4.80;100.00
31771;BME280;18343;50.152;8.182;2023-03-05T01:43:20;97669.09;;;4.98;100.00
31771;BME280;18343;50.152;8.182;2023-03-05T01:46:32;97671.16;;;5.04;100.00
31771;BME280;18343;50.152;8.182;2023-03-05T01:49:22;97662.03;;;5.06;100.00
31771;BME280;18343;50.152;8.182;2023-03-05T01:52:11;97669.47;;;5.03;100.00
31771;BME280;18343;50.152;8.182;2023-03-05T01:55:02;97665.69;;;5.05;100.00
31771;BME280;18343;50.152;8.182;2023-03-05T01:57:52;97662.72;;;5.08;100.00
31771;BME280;18343;50.152;8.182;2023-03-05T02:00:42;97655.94;;;5.14;100.00
31771;BME280;18343;50.152;8.182;2023-03-05T02:03:28;97651.13;;;5.18;100.00
31771;BME280;18343;50.152;8.182;2023-03-05T02:06:12;97653.72;;;5.09;100.00
31771;BME280;18343;50.152;8.182;2023-03-05T02:08:58;97648.47;;;5.00;100.00
31771;BME280;18343;50.152;8.182;2023-03-05T02:11:43;97644.50;;;5.04;100.00
31771;BME280;18343;50.152;8.182;2023-03-05T02:14:27;97642.53;;;5.06;100.00
31771;BME280;18343;50.152;8.182;2023-03-05T02:17:13;97647.03;;;5.05;100.00
31771;BME280;18343;50.152;8.182;2023-03-05T02:20:07;97638.19;;;5.05;100.00
31771;BME280;18343;50.152;8.182;2023-03-05T02:22:53;97637.34;;;5.04;100.00
31771;BME280;18343;50.152;8.182;2023-03-05T02:25:38;97631.88;;;5.06;100.00
31771;BME280;18343;50.152;8.182;2023-03-05T02:28:30;97624.72;;;5.06;100.00
31771;BME280;18343;50.152;8.182;2023-03-05T02:31:19;97632.16;;;5.03;100.00
31771;BME280;18343;50.152;8.182;2023-03-05T02:34:05;97632.00;;;5.04;100.00
31771;BME280;18343;50.152;8.182;2023-03-05T02:36:50;97621.66;;;5.01;100.00
31771;BME280;18343;50.152;8.182;2023-03-05T02:39:36;97626.16;;;5.01;100.00
31771;BME280;18343;50.152;8.182;2023-03-05T02:42:20;97616.31;;;5.01;100.00
31771;BME280;18343;50.152;8.182;2023-03-05T02:45:09;97619.84;;;5.02;100.00
31771;BME280;18343;50.152;8.182;2023-03-05T02:47:54;97619.41;;;4.89;100.00
31771;BME280;18343;50.152;8.182;2023-03-05T02:50:40;97611.63;;;4.78;100.00
31771;BME280;18343;50.152;8.182;2023-03-05T02:53:25;97614.06;;;4.71;100.00
31771;BME280;18343;50.152;8.182;2023-03-05T02:56:11;97611.09;;;4.74;100.00
31771;BME280;18343;50.152;8.182;2023-03-05T02:58:55;97607.53;;;4.83;100.00
31771;BME280;18343;50.152;8.182;2023-03-05T03:01:40;97609.03;;;4.68;100.00
31771;BME280;18343;50.152;8.182;2023-03-05T03:04:25;97607.19;;;4.68;100.00
31771;BME280;18343;50.152;8.182;2023-03-05T03:07:09;97604.84;;;4.83;100.00
31771;BME280;18343;50.152;8.182;2023-03-05T03:09:54;97604.56;;;4.86;100.00
31771;BME280;18343;50.152;8.182;2023-03-05T03:12:42;97594.59;;;4.88;100.00
31771;BME280;18343;50.152;8.182;2023-03-05T03:15:28;97593.22;;;4.84;100.00
31771;BME280;18343;50.152;8.182;2023-03-05T03:18:12;97597.53;;;4.85;100.00
31771;BME280;18343;50.152;8.182;2023-03-05T03:20:57;97595.19;;;4.82;100.00
31771;BME280;18343;50.152;8.182;2023-03-05T03:23:42;97595.19;;;4.82;100.00
31771;BME280;18343;50.152;8.182;2023-03-05T03:26:26;97594.50;;;4.80;100.00
31771;BME280;18343;50.152;8.182;2023-03-05T03:29:13;97592.81;;;4.79;100.00
31771;BME280;18343;50.152;8.182;2023-03-05T03:31:57;97592.97;;;4.78;100.00
31771;BME280;18343;50.152;8.182;2023-03-05T03:34:43;97583.06;;;4.70;100.00
31771;BME280;18343;50.152;8.182;2023-03-05T03:37:28;97585.19;;;4.66;100.00
31771;BME280;18343;50.152;8.182;2023-03-05T03:40:13;97579.41;;;4.71;100.00
31771;BME280;18343;50.152;8.182;2023-03-05T03:42:58;97581.41;;;4.69;100.00
31771;BME280;18343;50.152;8.182;2023-03-05T03:45:44;97581.09;;;4.72;100.00
31771;BME280;18343;50.152;8.182;2023-03-05T03:48:29;97572.50;;;4.78;100.00
31771;BME280;18343;50.152;8.182;2023-03-05T03:51:13;97577.38;;;4.83;100.00
31771;BME280;18343;50.152;8.182;2023-03-05T03:53:59;97572.72;;;4.85;100.00
31771;BME280;18343;50.152;8.182;2023-03-05T03:56:44;97567.16;;;4.78;100.00
31771;BME280;18343;50.152;8.182;2023-03-05T03:59:29;97577.13;;;4.76;100.00
31771;BME280;18343;50.152;8.182;2023-03-05T04:02:15;97570.00;;;4.59;100.00
31771;BME280;18343;50.152;8.182;2023-03-05T04:05:00;97576.63;;;4.55;100.00
31771;BME280;18343;50.152;8.182;2023-03-05T04:07:45;97573.94;;;4.55;100.00
31771;BME280;18343;50.152;8.182;2023-03-05T04:10:29;97575.94;;;4.53;100.00
31771;BME280;18343;50.152;8.182;2023-03-05T04:13:13;97575.31;;;4.41;100.00
31771;BME280;18343;50.152;8.182;2023-03-05T04:15:58;97574.16;;;4.43;100.00
31771;BME280;18343;50.152;8.182;2023-03-05T04:18:46;97569.69;;;4.44;100.00
31771;BME280;18343;50.152;8.182;2023-03-05T04:21:30;97563.66;;;4.42;100.00
31771;BME280;18343;50.152;8.182;2023-03-05T04:24:15;97572.03;;;4.29;100.00
31771;BME280;18343;50.152;8.182;2023-03-05T04:26:59;97570.44;;;4.36;100.00
31771;BME280;18343;50.152;8.182;2023-03-05T04:29:44;97567.59;;;4.38;100.00
31771;BME280;18343;50.152;8.182;2023-03-05T04:32:29;97569.13;;;4.40;100.00
31771;BME280;18343;50.152;8.182;2023-03-05T04:35:15;97558.19;;;4.43;100.00
31771;BME280;18343;50.152;8.182;2023-03-05T04:38:00;97559.88;;;4.45;100.00
31771;BME280;18343;50.152;8.182;2023-03-05T04:40:45;97554.38;;;4.46;100.00
31771;BME280;18343;50.152;8.182;2023-03-05T04:43:29;97552.94;;;4.34;100.00
31771;BME280;18343;50.152;8.182;2023-03-05T04:46:14;97558.88;;;4.28;100.00
31771;BME280;18343;50.152;8.182;2023-03-05T04:48:59;97550.75;;;4.29;100.00
31771;BME280;18343;50.152;8.182;2023-03-05T04:51:45;97543.97;;;4.35;100.00
31771;BME280;18343;50.152;8.182;2023-03-05T04:54:29;97545.50;;;4.37;100.00
31771;BME280;18343;50.152;8.182;2023-03-05T04:57:14;97540.84;;;4.39;100.00
31771;BME280;18343;50.152;8.182;2023-03-05T04:59:58;97540.38;;;4.44;100.00
31771;BME280;18343;50.152;8.182;2023-03-05T05:02:45;97532.78;;;4.49;100.00
31771;BME280;18343;50.152;8.182;2023-03-05T05:05:30;97527.84;;;4.54;100.00
31771;BME280;18343;50.152;8.182;2023-03-05T05:08:16;97523.06;;;4.58;100.00
31771;BME280;18343;50.152;8.182;2023-03-05T05:11:07;97525.25;;;4.45;100.00
31771;BME280;18343;50.152;8.182;2023-03-05T05:13:52;97518.41;;;4.42;100.00
31771;BME280;18343;50.152;8.182;2023-03-05T05:16:36;97525.56;;;4.41;100.00
31771;BME280;18343;50.152;8.182;2023-03-05T05:19:21;97520.22;;;4.41;100.00
31771;BME280;18343;50.152;8.182;2023-03-05T05:22:05;97514.91;;;4.41;100.00
31771;BME280;18343;50.152;8.182;2023-03-05T05:24:51;97512.38;;;4.40;100.00
31771;BME280;18343;50.152;8.182;2023-03-05T05:27:37;97511.88;;;4.36;100.00
31771;BME280;18343;50.152;8.182;2023-03-05T05:30:21;97509.22;;;4.36;100.00
31771;BME280;18343;50.152;8.182;2023-03-05T05:33:06;97514.16;;;4.31;100.00
31771;BME280;18343;50.152;8.182;2023-03-05T05:35:51;97505.88;;;4.34;100.00
31771;BME280;18343;50.152;8.182;2023-03-05T05:38:36;97510.50;;;4.32;100.00
31771;BME280;18343;50.152;8.182;2023-03-05T05:41:22;97516.81;;;4.31;100.00
31771;BME280;18343;50.152;8.182;2023-03-05T05:44:06;97519.19;;;4.34;100.00
31771;BME280;18343;50.152;8.182;2023-03-05T05:46:51;97516.53;;;4.34;100.00
31771;BME280;18343;50.152;8.182;2023-03-05T05:49:35;97518.03;;;4.37;100.00
31771;BME280;18343;50.152;8.182;2023-03-05T05:52:20;97514.38;;;4.38;100.00
31771;BME280;18343;50.152;8.182;2023-03-05T05:55:06;97519.53;;;4.39;100.00
31771;BME280;18343;50.152;8.182;2023-03-05T05:57:53;97524.41;;;4.44;100.00
31771;BME280;18343;50.152;8.182;2023-03-05T06:00:37;97516.97;;;4.48;100.00
31771;BME280;18343;50.152;8.182;2023-03-05T06:03:22;97512.03;;;4.53;100.00
31771;BME280;18343;50.152;8.182;2023-03-05T06:06:09;97514.97;;;4.50;100.00
31771;BME280;18343;50.152;8.182;2023-03-05T06:08:54;97504.47;;;4.48;100.00
31771;BME280;18343;50.152;8.182;2023-03-05T06:11:39;97508.81;;;4.49;100.00
31771;BME280;18343;50.152;8.182;2023-03-05T06:14:26;97509.50;;;4.51;100.00
31771;BME280;18343;50.152;8.182;2023-03-05T06:17:13;97504.63;;;4.47;100.00
31771;BME280;18343;50.152;8.182;2023-03-05T06:19:58;97512.09;;;4.43;100.00
31771;BME280;18343;50.152;8.182;2023-03-05T06:22:43;97508.59;;;4.42;100.00
31771;BME280;18343;50.152;8.182;2023-03-05T06:25:27;97506.63;;;4.45;100.00
31771;BME280;18343;50.152;8.182;2023-03-05T06:28:12;97503.94;;;4.45;100.00
31771;BME280;18343;50.152;8.182;2023-03-05T06:31:04;97509.88;;;4.38;100.00
31771;BME280;18343;50.152;8.182;2023-03-05T06:33:50;97502.38;;;4.34;100.00
31771;BME280;18343;50.152;8.182;2023-03-05T06:36:37;97506.31;;;4.30;100.00
31771;BME280;18343;50.152;8.182;2023-03-05T06:39:21;97504.56;;;4.21;100.00
31771;BME280;18343;50.152;8.182;2023-03-05T06:42:06;97508.94;;;4.12;100.00
31771;BME280;18343;50.152;8.182;2023-03-05T06:44:51;97502.66;;;4.13;100.00
31771;BME280;18343;50.152;8.182;2023-03-05T06:47:37;97511.75;;;4.11;100.00
31771;BME280;18343;50.152;8.182;2023-03-05T06:50:21;97509.28;;;4.09;100.00
31771;BME280;18343;50.152;8.182;2023-03-05T06:53:06;97515.44;;;4.10;100.00
31771;BME280;18343;50.152;8.182;2023-03-05T06:55:53;97520.53;;;4.21;100.00
31771;BME280;18343;50.152;8.182;2023-03-05T06:58:38;97523.28;;;4.29;100.00
31771;BME280;18343;50.152;8.182;2023-03-05T07:01:23;97519.63;;;4.30;100.00
31771;BME280;18343;50.152;8.182;2023-03-05T07:04:11;97520.25;;;3.79;100.00
31771;BME280;18343;50.152;8.182;2023-03-05T07:06:58;97516.38;;;3.91;100.00
31771;BME280;18343;50.152;8.182;2023-03-05T07:09:42;97522.94;;;3.96;100.00
31771;BME280;18343;50.152;8.182;2023-03-05T07:12:27;97512.72;;;3.74;100.00
31771;BME280;18343;50.152;8.182;2023-03-05T07:15:11;97521.22;;;3.03;100.00
31771;BME280;18343;50.152;8.182;2023-03-05T07:17:56;97511.59;;;3.39;100.00
31771;BME280;18343;50.152;8.182;2023-03-05T07:20:42;97511.75;;;3.65;100.00
31771;BME280;18343;50.152;8.182;2023-03-05T07:23:26;97511.75;;;3.65;100.00
31771;BME280;18343;50.152;8.182;2023-03-05T07:26:11;97510.16;;;3.82;100.00
31771;BME280;18343;50.152;8.182;2023-03-05T07:28:56;97516.66;;;3.70;100.00
31771;BME280;18343;50.152;8.182;2023-03-05T07:31:40;97525.19;;;3.36;100.00
31771;BME280;18343;50.152;8.182;2023-03-05T07:34:25;97518.41;;;3.52;100.00
31771;BME280;18343;50.152;8.182;2023-03-05T07:37:12;97516.78;;;3.41;100.00
31771;BME280;18343;50.152;8.182;2023-03-05T07:39:57;97515.22;;;3.76;100.00
31771;BME280;18343;50.152;8.182;2023-03-05T07:42:42;97509.78;;;3.95;100.00
31771;BME280;18343;50.152;8.182;2023-03-05T07:45:26;97512.28;;;3.96;100.00
31771;BME280;18343;50.152;8.182;2023-03-05T07:48:13;97506.28;;;4.12;100.00
31771;BME280;18343;50.152;8.182;2023-03-05T07:51:02;97509.28;;;4.09;100.00
31771;BME280;18343;50.152;8.182;2023-03-05T07:53:50;97513.53;;;4.02;100.00
31771;BME280;18343;50.152;8.182;2023-03-05T07:56:35;97508.50;;;3.99;100.00
31771;BME280;18343;50.152;8.182;2023-03-05T07:59:20;97505.28;;;3.78;100.00
31771;BME280;18343;50.152;8.182;2023-03-05T08:02:04;97500.91;;;4.04;100.00
31771;BME280;18343;50.152;8.182;2023-03-05T08:04:49;97503.78;;;4.11;100.00
31771;BME280;18343;50.152;8.182;2023-03-05T08:07:34;97503.19;;;3.99;100.00
31771;BME280;18343;50.152;8.182;2023-03-05T08:10:20;97494.75;;;4.03;100.00
31771;BME280;18343;50.152;8.182;2023-03-05T08:13:04;97489.72;;;4.18;100.00
31771;BME280;18343;50.152;8.182;2023-03-05T08:15:49;97491.19;;;4.30;100.00
31771;BME280;18343;50.152;8.182;2023-03-05T08:18:34;97492.38;;;4.18;100.00
31771;BME280;18343;50.152;8.182;2023-03-05T08:21:21;97496.19;;;4.16;100.00
31771;BME280;18343;50.152;8.182;2023-03-05T08:24:10;97486.63;;;4.23;100.00
31771;BME280;18343;50.152;8.182;2023-03-05T08:26:57;97483.19;;;4.30;100.00
31771;BME280;18343;50.152;8.182;2023-03-05T08:29:44;97487.25;;;4.34;100.00
31771;BME280;18343;50.152;8.182;2023-03-05T08:32:29;97484.94;;;4.39;100.00
31771;BME280;18343;50.152;8.182;2023-03-05T08:35:13;97484.78;;;4.41;100.00
31771;BME280;18343;50.152;8.182;2023-03-05T08:37:58;97484.16;;;4.47;100.00
31771;BME280;18343;50.152;8.182;2023-03-05T08:40:42;97472.03;;;4.27;100.00
31771;BME280;18343;50.152;8.182;2023-03-05T08:43:28;97471.03;;;4.28;100.00
31771;BME280;18343;50.152;8.182;2023-03-05T08:46:15;97477.88;;;4.30;100.00
31771;BME280;18343;50.152;8.182;2023-03-05T08:49:00;97461.75;;;4.14;100.00
31771;BME280;18343;50.152;8.182;2023-03-05T08:51:44;97462.72;;;4.13;100.00
31771;BME280;18343;50.152;8.182;2023-03-05T08:54:29;97466.84;;;4.25;100.00
31771;BME280;18343;50.152;8.182;2023-03-05T08:57:14;97466.53;;;4.28;100.00
31771;BME280;18343;50.152;8.182;2023-03-05T08:59:59;97467.00;;;4.24;100.00
31771;BME280;18343;50.152;8.182;2023-03-05T09:02:44;97469.88;;;4.13;100.00
31771;BME280;18343;50.152;8.182;2023-03-05T09:05:29;97466.41;;;4.30;100.00
31771;BME280;18343;50.152;8.182;2023-03-05T09:08:14;97468.81;;;4.23;100.00
31771;BME280;18343;50.152;8.182;2023-03-05T09:11:01;97467.69;;;4.08;100.00
31771;BME280;18343;50.152;8.182;2023-03-05T09:13:46;97461.91;;;3.95;100.00
31771;BME280;18343;50.152;8.182;2023-03-05T09:16:32;97455.44;;;4.15;100.00
31771;BME280;18343;50.152;8.182;2023-03-05T09:19:17;97449.31;;;4.40;100.00
31771;BME280;18343;50.152;8.182;2023-03-05T09:22:01;97446.81;;;4.39;100.00
31771;BME280;18343;50.152;8.182;2023-03-05T09:24:46;97452.41;;;4.28;100.00
31771;BME280;18343;50.152;8.182;2023-03-05T09:27:32;97450.69;;;4.45;100.00
31771;BME280;18343;50.152;8.182;2023-03-05T09:30:17;97445.06;;;4.48;100.00
31771;BME280;18343;50.152;8.182;2023-03-05T09:33:03;97445.13;;;4.56;100.00
31771;BME280;18343;50.152;8.182;2023-03-05T09:35:48;97439.66;;;4.57;100.00
31771;BME280;18343;50.152;8.182;2023-03-05T09:38:33;97446.50;;;4.60;100.00
31771;BME280;18343;50.152;8.182;2023-03-05T09:41:27;97442.88;;;4.69;100.00
31771;BME280;18343;50.152;8.182;2023-03-05T09:44:24;97444.78;;;4.76;100.00
31771;BME280;18343;50.152;8.182;2023-03-05T09:47:32;97440.53;;;4.66;100.00
31771;BME280;18343;50.152;8.182;2023-03-05T09:50:37;97442.72;;;4.70;100.00
31771;BME280;18343;50.152;8.182;2023-03-05T09:53:31;97437.78;;;4.75;100.00
31771;BME280;18343;50.152;8.182;2023-03-05T09:56:23;97432.91;;;4.71;100.00
31771;BME280;18343;50.152;8.182;2023-03-05T09:59:20;97435.78;;;4.52;100.00
31771;BME280;18343;50.152;8.182;2023-03-05T10:02:17;97434.44;;;4.30;100.00
31771;BME280;18343;50.152;8.182;2023-03-05T10:05:11;97438.25;;;4.27;100.00
31771;BME280;18343;50.152;8.182;2023-03-05T10:08:03;97428.94;;;4.49;100.00
31771;BME280;18343;50.152;8.182;2023-03-05T10:10:51;97431.63;;;4.14;100.00
31771;BME280;18343;50.152;8.182;2023-03-05T10:13:38;97426.41;;;4.04;100.00
31771;BME280;18343;50.152;8.182;2023-03-05T10:20:57;97421.22;;;4.20;100.00
31771;BME280;18343;50.152;8.182;2023-03-05T10:23:59;97422.03;;;4.38;100.00
31771;BME280;18343;50.152;8.182;2023-03-05T10:26:57;97421.63;;;4.51;100.00
31771;BME280;18343;50.152;8.182;2023-03-05T10:30:03;97413.50;;;4.53;100.00
31771;BME280;18343;50.152;8.182;2023-03-05T10:32:57;97400.25;;;4.43;100.00
31771;BME280;18343;50.152;8.182;2023-03-05T10:36:15;97394.91;;;4.35;100.00
31771;BME280;18343;50.152;8.182;2023-03-05T10:39:32;97403.28;;;4.04;100.00
31771;BME280;18343;50.152;8.182;2023-03-05T10:42:27;97403.28;;;4.04;100.00
31771;BME280;18343;50.152;8.182;2023-03-05T10:45:17;97397.25;;;4.20;100.00
31771;BME280;18343;50.152;8.182;2023-03-05T10:48:11;97387.53;;;4.55;100.00
31771;BME280;18343;50.152;8.182;2023-03-05T10:51:02;97387.47;;;4.72;100.00
31771;BME280;18343;50.152;8.182;2023-03-05T10:54:13;97381.53;;;4.79;100.00
31771;BME280;18343;50.152;8.182;2023-03-05T10:57:18;97379.78;;;4.61;100.00
31771;BME280;18343;50.152;8.182;2023-03-05T11:00:16;97376.38;;;4.51;100.00
31771;BME280;18343;50.152;8.182;2023-03-05T11:03:03;97376.84;;;4.03;100.00
31771;BME280;18343;50.152;8.182;2023-03-05T11:05:53;97363.66;;;4.19;100.00
31771;BME280;18343;50.152;8.182;2023-03-05T11:08:41;97358.47;;;4.35;100.00
31771;BME280;18343;50.152;8.182;2023-03-05T11:11:26;97353.91;;;4.80;100.00
31771;BME280;18343;50.152;8.182;2023-03-05T11:14:25;97342.88;;;5.08;100.00
31771;BME280;18343;50.152;8.182;2023-03-05T11:17:27;97340.13;;;5.34;100.00
31771;BME280;18343;50.152;8.182;2023-03-05T11:20:32;97339.00;;;5.45;100.00
31771;BME280;18343;50.152;8.182;2023-03-05T11:23:19;97335.50;;;5.53;100.00
31771;BME280;18343;50.152;8.182;2023-03-05T11:26:18;97325.53;;;5.79;100.00
31771;BME280;18343;50.152;8.182;2023-03-05T11:29:18;97331.06;;;6.10;100.00
31771;BME280;18343;50.152;8.182;2023-03-05T11:32:19;97327.06;;;6.22;100.00
31771;BME280;18343;50.152;8.182;2023-03-05T11:35:29;97321.38;;;6.33;100.00
31771;BME280;18343;50.152;8.182;2023-03-05T11:38:18;97321.56;;;6.16;100.00
31771;BME280;18343;50.152;8.182;2023-03-05T11:41:03;97319.59;;;6.01;100.00
31771;BME280;18343;50.152;8.182;2023-03-05T11:43:49;97310.22;;;5.89;100.00
31771;BME280;18343;50.152;8.182;2023-03-05T11:46:40;97312.88;;;6.05;100.00
31771;BME280;18343;50.152;8.182;2023-03-05T11:49:29;97309.06;;;5.92;100.00
31771;BME280;18343;50.152;8.182;2023-03-05T11:56:18;97300.72;;;5.95;100.00
31771;BME280;18343;50.152;8.182;2023-03-05T11:59:12;97298.72;;;5.89;100.00
31771;BME280;18343;50.152;8.182;2023-03-05T12:01:59;97294.56;;;5.94;100.00
31771;BME280;18343;50.152;8.182;2023-03-05T12:04:45;97293.34;;;5.81;100.00
31771;BME280;18343;50.152;8.182;2023-03-05T12:07:35;97283.22;;;5.92;100.00
31771;BME280;18343;50.152;8.182;2023-03-05T12:10:24;97283.38;;;5.99;100.00
31771;BME280;18343;50.152;8.182;2023-03-05T12:13:17;97284.56;;;5.96;100.00
31771;BME280;18343;50.152;8.182;2023-03-05T12:16:13;97280.53;;;6.08;100.00
31771;BME280;18343;50.152;8.182;2023-03-05T12:19:29;97273.69;;;6.14;100.00
31771;BME280;18343;50.152;8.182;2023-03-05T12:22:21;97284.34;;;5.82;100.00
31771;BME280;18343;50.152;8.182;2023-03-05T12:25:29;97277.31;;;5.56;100.00
31771;BME280;18343;50.152;8.182;2023-03-05T12:28:51;97272.69;;;5.66;100.00
31771;BME280;18343;50.152;8.182;2023-03-05T12:31:37;97269.66;;;5.45;100.00
31771;BME280;18343;50.152;8.182;2023-03-05T12:34:48;97257.47;;;5.75;100.00
31771;BME280;18343;50.152;8.182;2023-03-05T12:41:42;97236.66;;;5.87;100.00
31771;BME280;18343;50.152;8.182;2023-03-05T12:44:26;97233.19;;;5.94;100.00
31771;BME280;18343;50.152;8.182;2023-03-05T12:47:17;97232.31;;;6.02;100.00
31771;BME280;18343;50.152;8.182;2023-03-05T12:50:03;97232.81;;;6.14;100.00
31771;BME280;18343;50.152;8.182;2023-03-05T12:52:48;97227.50;;;5.97;98.22
31771;BME280;18343;50.152;8.182;2023-03-05T12:55:34;97220.34;;;5.90;98.51
31771;BME280;18343;50.152;8.182;2023-03-05T12:58:28;97218.28;;;6.16;99.85
31771;BME280;18343;50.152;8.182;2023-03-05T13:01:33;97215.78;;;6.15;99.41
31771;BME280;18343;50.152;8.182;2023-03-05T13:04:24;97207.00;;;5.73;96.35
31771;BME280;18343;50.152;8.182;2023-03-05T13:07:15;97197.97;;;5.99;98.33
31771;BME280;18343;50.152;8.182;2023-03-05T13:10:00;97200.28;;;6.10;96.17
31771;BME280;18343;50.152;8.182;2023-03-05T13:12:51;97190.31;;;5.96;93.67
31771;BME280;18343;50.152;8.182;2023-03-05T13:15:37;97196.28;;;6.06;95.48
31771;BME280;18343;50.152;8.182;2023-03-05T13:18:24;97188.31;;;5.65;94.04
31771;BME280;18343;50.152;8.182;2023-03-05T13:21:14;97203.63;;;5.88;96.03
31771;BME280;18343;50.152;8.182;2023-03-05T13:24:01;97191.47;;;6.01;96.46
31771;BME280;18343;50.152;8.182;2023-03-05T13:26:46;97192.25;;;6.10;96.13
31771;BME280;18343;50.152;8.182;2023-03-05T13:29:32;97189.41;;;6.20;95.68
31771;BME280;18343;50.152;8.182;2023-03-05T13:32:24;97183.50;;;6.32;96.12
31771;BME280;18343;50.152;8.182;2023-03-05T13:35:12;97179.34;;;6.30;95.91
31771;BME280;18343;50.152;8.182;2023-03-05T13:37:57;97179.59;;;6.04;93.51
31771;BME280;18343;50.152;8.182;2023-03-05T13:40:42;97179.91;;;6.17;95.67
31771;BME280;18343;50.152;8.182;2023-03-05T13:43:26;97173.06;;;6.15;95.37
31771;BME280;18343;50.152;8.182;2023-03-05T13:46:12;97165.25;;;6.05;93.87
31771;BME280;18343;50.152;8.182;2023-03-05T13:49:17;97161.88;;;6.19;95.38
31771;BME280;18343;50.152;8.182;2023-03-05T13:52:02;97154.53;;;6.21;94.78
31771;BME280;18343;50.152;8.182;2023-03-05T13:54:46;97153.88;;;6.11;93.19
31771;BME280;18343;50.152;8.182;2023-03-05T13:57:37;97156.03;;;6.24;94.93
31771;BME280;18343;50.152;8.182;2023-03-05T14:00:30;97150.50;;;6.25;94.52
31771;BME280;18343;50.152;8.182;2023-03-05T14:03:22;97145.19;;;6.25;94.04
31771;BME280;18343;50.152;8.182;2023-03-05T14:06:09;97148.06;;;6.07;92.31
31771;BME280;18343;50.152;8.182;2023-03-05T14:09:05;97145.22;;;6.09;92.72
31771;BME280;18343;50.152;8.182;2023-03-05T14:11:53;97135.88;;;6.05;92.28
31771;BME280;18343;50.152;8.182;2023-03-05T14:14:38;97135.53;;;6.16;92.77
31771;BME280;18343;50.152;8.182;2023-03-05T14:17:36;97133.66;;;6.25;92.94
31771;BME280;18343;50.152;8.182;2023-03-05T14:20:25;97127.59;;;6.00;93.27
31771;BME280;18343;50.152;8.182;2023-03-05T14:23:37;97123.50;;;6.20;93.68
31771;BME280;18343;50.152;8.182;2023-03-05T14:26:28;97117.97;;;6.22;91.52
31771;BME280;18343;50.152;8.182;2023-03-05T14:29:15;97119.88;;;6.05;92.99
31771;BME280;18343;50.152;8.182;2023-03-05T14:32:05;97114.00;;;6.09;91.60
31771;BME280;18343;50.152;8.182;2023-03-05T14:34:55;97106.66;;;6.11;91.90
31771;BME280;18343;50.152;8.182;2023-03-05T14:37:43;97105.97;;;6.18;92.13
31771;BME280;18343;50.152;8.182;2023-03-05T14:40:31;97102.66;;;6.16;90.39
31771;BME280;18343;50.152;8.182;2023-03-05T14:43:16;97097.16;;;6.09;90.83
31771;BME280;18343;50.152;8.182;2023-03-05T14:46:02;97089.88;;;5.87;89.71
31771;BME280;18343;50.152;8.182;2023-03-05T14:48:47;97086.22;;;5.96;91.56
31771;BME280;18343;50.152;8.182;2023-03-05T14:51:34;97087.84;;;6.05;91.39
31771;BME280;18343;50.152;8.182;2023-03-05T14:54:25;97077.63;;;6.17;91.97
31771;BME280;18343;50.152;8.182;2023-03-05T14:57:17;97068.09;;;6.22;91.70
31771;BME280;18343;50.152;8.182;2023-03-05T15:00:04;97066.44;;;6.13;91.01
31771;BME280;18343;50.152;8.182;2023-03-05T15:02:50;97068.50;;;6.03;90.85
31771;BME280;18343;50.152;8.182;2023-03-05T15:05:36;97060.69;;;5.85;89.65
31771;BME280;18343;50.152;8.182;2023-03-05T15:08:24;97063.03;;;5.80;90.36
31771;BME280;18343;50.152;8.182;2023-03-05T15:11:10;97054.63;;;5.60;89.99